Time;durP1;ratioP1;P1;durP2;ratioP2;P2;SDS_P1;SDS_P2;PMS_P1;PMS_P2;Temp;Humidity;BMP_temperature;BMP_pressure;BME280_temperature;BME280_humidity;BME280_pressure;Samples;Min_cycle;Max_cycle;Signal;HPM_P1;HPM_P2
2024/03/13 05:44:19;;;;;;;5.77;2.83;;;;;;;;;;6179494;23;20451;31
2024/03/13 05:46:45;;;;;;;4.30;2.77;;;;;;;;;;4918123;29;20614;-74
2024/03/13 05:49:16;;;;;;;11.63;3.17;;;;;;;;;;4933696;29;20466;-73
2024/03/13 05:51:42;;;;;;;8.93;3.47;;;;;;;;;;4937012;29;20422;-73
2024/03/13 05:54:08;;;;;;;5.77;3.90;;;;;;;;;;4920308;29;20424;-74
2024/03/13 05:56:34;;;;;;;6.43;3.13;;;;;;;;;;4902641;29;20423;-75
2024/03/13 05:59:00;;;;;;;8.50;3.83;;;;;;;;;;4917605;29;20425;-79
2024/03/13 06:01:28;;;;;;;10.13;3.60;;;;;;;;;;4914726;29;20424;-75
2024/03/13 06:03:56;;;;;;;12.93;3.17;;;;;;;;;;4899159;29;20787;-75
2024/03/13 06:06:22;;;;;;;6.90;3.27;;;;;;;;;;4898460;29;20432;-75
2024/03/13 06:08:48;;;;;;;9.57;3.60;;;;;;;;;;4897464;29;20416;-75
2024/03/13 06:11:18;;;;;;;6.33;2.50;;;;;;;;;;4899355;29;20956;-74
2024/03/13 06:13:44;;;;;;;7.23;3.30;;;;;;;;;;4898835;29;20412;-74
2024/03/13 06:16:10;;;;;;;7.53;3.70;;;;;;;;;;4897195;29;20458;-74
2024/03/13 06:18:36;;;;;;;12.40;4.07;;;;;;;;;;4898468;29;20423;-74
2024/03/13 06:21:05;;;;;;;7.90;4.23;;;;;;;;;;4898041;29;20424;-74
2024/03/13 06:23:31;;;;;;;7.97;4.60;;;;;;;;;;4898229;29;20956;-75
2024/03/13 06:25:57;;;;;;;11.90;3.90;;;;;;;;;;4898026;29;20565;-74
2024/03/13 06:31:08;;;;;;;9.23;4.07;;;;;;;;;;4898443;29;20413;-75
2024/03/13 06:33:34;;;;;;;15.10;4.23;;;;;;;;;;4897963;29;20412;-75
2024/03/13 06:36:00;;;;;;;7.33;4.20;;;;;;;;;;4897339;29;20516;-75
2024/03/13 06:38:26;;;;;;;15.77;5.40;;;;;;;;;;4897848;29;20424;-75
2024/03/13 06:40:52;;;;;;;7.13;5.03;;;;;;;;;;4898498;29;20435;-75
2024/03/13 06:43:18;;;;;;;7.70;4.23;;;;;;;;;;4898437;29;20888;-75
2024/03/13 06:45:49;;;;;;;9.67;5.53;;;;;;;;;;4898011;29;20475;-75
2024/03/13 06:48:15;;;;;;;30.13;5.33;;;;;;;;;;4898505;29;20416;-75
2024/03/13 06:50:44;;;;;;;9.57;5.30;;;;;;;;;;4898204;29;20819;-75
2024/03/13 06:53:10;;;;;;;14.43;5.37;;;;;;;;;;4898441;29;20423;-75
2024/03/13 06:55:36;;;;;;;11.53;5.90;;;;;;;;;;4897872;29;20443;-75
2024/03/13 06:58:02;;;;;;;14.30;6.20;;;;;;;;;;4898373;29;20428;-76
2024/03/13 07:00:28;;;;;;;12.47;6.47;;;;;;;;;;4898113;29;20430;-75
2024/03/13 07:02:59;;;;;;;13.97;7.10;;;;;;;;;;4897952;29;20423;-75
2024/03/13 07:05:25;;;;;;;11.90;5.90;;;;;;;;;;4898151;29;20990;-75
2024/03/13 07:07:52;;;;;;;13.60;6.00;;;;;;;;;;4898294;29;20779;-75
2024/03/13 07:10:18;;;;;;;10.17;6.10;;;;;;;;;;4897839;29;20411;-75
2024/03/13 07:12:44;;;;;;;12.37;6.60;;;;;;;;;;4897987;29;20434;-75
2024/03/13 07:15:10;;;;;;;8.50;5.67;;;;;;;;;;4897869;29;20486;-75
2024/03/13 07:17:39;;;;;;;11.40;6.10;;;;;;;;;;4897916;29;20422;-75
2024/03/13 07:20:09;;;;;;;11.67;5.50;;;;;;;;;;4897695;29;20463;-75
2024/03/13 07:22:35;;;;;;;16.43;6.23;;;;;;;;;;4897873;29;20443;-75
2024/03/13 07:25:02;;;;;;;8.60;5.60;;;;;;;;;;4897562;29;20834;-75
2024/03/13 07:27:28;;;;;;;12.07;5.83;;;;;;;;;;4897830;29;20415;-73
2024/03/13 07:29:54;;;;;;;13.50;6.10;;;;;;;;;;4897672;29;20462;-74
2024/03/13 07:32:21;;;;;;;12.53;6.33;;;;;;;;;;4897649;29;20510;-74
2024/03/13 07:34:47;;;;;;;11.07;6.20;;;;;;;;;;4897165;29;20495;-74
2024/03/13 07:37:13;;;;;;;9.73;5.27;;;;;;;;;;4897570;29;20420;-75
2024/03/13 07:39:39;;;;;;;11.00;5.67;;;;;;;;;;4897490;29;20897;-75
2024/03/13 07:42:06;;;;;;;8.63;6.43;;;;;;;;;;4897885;29;20425;-75
2024/03/13 07:44:32;;;;;;;13.40;6.30;;;;;;;;;;4897140;29;20474;-75
2024/03/13 07:46:58;;;;;;;11.17;5.70;;;;;;;;;;4896999;29;20418;-75
2024/03/13 07:49:26;;;;;;;9.10;5.13;;;;;;;;;;4897020;29;20418;-75
2024/03/13 07:51:55;;;;;;;16.03;6.90;;;;;;;;;;4897396;29;20436;-75
2024/03/13 07:54:22;;;;;;;8.47;5.23;;;;;;;;;;4896956;29;20446;-75
2024/03/13 07:56:48;;;;;;;8.40;5.67;;;;;;;;;;4896756;29;20776;-75
2024/03/13 07:59:14;;;;;;;7.00;5.40;;;;;;;;;;4897194;29;20478;-75
2024/03/13 08:01:40;;;;;;;11.87;5.80;;;;;;;;;;4897348;29;20423;-75
2024/03/13 08:04:07;;;;;;;8.33;5.20;;;;;;;;;;4897027;29;20877;-76
2024/03/13 08:06:36;;;;;;;10.00;5.97;;;;;;;;;;4896731;29;20442;-73
2024/03/13 08:09:02;;;;;;;10.40;5.20;;;;;;;;;;4896803;29;20439;-74
2024/03/13 08:11:31;;;;;;;14.40;5.87;;;;;;;;;;4896553;29;20416;-74
2024/03/13 08:13:58;;;;;;;13.03;6.57;;;;;;;;;;4897111;29;20552;-74
2024/03/13 08:16:24;;;;;;;8.00;5.30;;;;;;;;;;4896414;29;20435;-74
2024/03/13 08:18:50;;;;;;;11.70;5.70;;;;;;;;;;4896682;29;20416;-74
2024/03/13 08:21:16;;;;;;;17.00;6.20;;;;;;;;;;4897097;29;20416;-74
2024/03/13 08:23:43;;;;;;;16.50;5.03;;;;;;;;;;4896613;29;20423;-74
2024/03/13 08:26:09;;;;;;;14.87;6.40;;;;;;;;;;4896450;29;20473;-75
2024/03/13 08:28:36;;;;;;;11.30;5.80;;;;;;;;;;4896632;29;20794;-74
2024/03/13 08:31:05;;;;;;;9.50;6.07;;;;;;;;;;4896841;29;20738;-74
2024/03/13 08:33:31;;;;;;;10.73;7.10;;;;;;;;;;4896501;29;20471;-74
2024/03/13 08:35:57;;;;;;;10.03;6.37;;;;;;;;;;4894655;29;20459;-74
2024/03/13 08:38:23;;;;;;;15.27;7.30;;;;;;;;;;4896763;29;20427;-74
2024/03/13 08:40:49;;;;;;;10.50;5.77;;;;;;;;;;4896860;29;20430;-75
2024/03/13 08:43:20;;;;;;;14.00;6.97;;;;;;;;;;4896803;29;20419;-75
2024/03/13 08:45:46;;;;;;;12.70;5.87;;;;;;;;;;4896376;29;20478;-75
2024/03/13 08:48:12;;;;;;;10.60;6.13;;;;;;;;;;4896472;29;20411;-75
2024/03/13 08:50:38;;;;;;;10.30;6.20;;;;;;;;;;4896796;29;20781;-75
2024/03/13 08:53:04;;;;;;;9.80;6.23;;;;;;;;;;4896710;29;20423;-75
2024/03/13 08:55:34;;;;;;;8.93;5.37;;;;;;;;;;4896427;29;20442;-74
2024/03/13 08:58:00;;;;;;;11.30;6.50;;;;;;;;;;4896605;29;20908;-74
2024/03/13 09:00:26;;;;;;;13.97;6.50;;;;;;;;;;4896548;29;20506;-74
2024/03/13 09:02:56;;;;;;;9.93;6.33;;;;;;;;;;4896859;29;20571;-74
2024/03/13 09:05:22;;;;;;;11.57;6.90;;;;;;;;;;4897135;29;20467;-74
2024/03/13 09:07:48;;;;;;;15.07;7.03;;;;;;;;;;4896998;29;20423;-74
2024/03/13 09:10:16;;;;;;;13.10;7.30;;;;;;;;;;4896835;29;20798;-75
2024/03/13 09:12:42;;;;;;;12.53;6.93;;;;;;;;;;4896481;29;20419;-74
2024/03/13 09:15:09;;;;;;;12.27;6.50;;;;;;;;;;4906265;29;20542;-74
2024/03/13 09:17:35;;;;;;;18.30;7.63;;;;;;;;;;4903148;29;20419;-74
2024/03/13 09:20:02;;;;;;;10.23;6.13;;;;;;;;;;4896946;29;20915;-74
2024/03/13 09:22:28;;;;;;;13.50;6.77;;;;;;;;;;4896859;29;20442;-74
2024/03/13 09:24:54;;;;;;;7.90;5.60;;;;;;;;;;4898822;29;20513;-74
2024/03/13 09:27:21;;;;;;;12.77;7.00;;;;;;;;;;4899758;29;20823;-75
2024/03/13 09:29:48;;;;;;;10.10;6.30;;;;;;;;;;4899613;29;20494;-74
2024/03/13 09:32:14;;;;;;;9.10;6.70;;;;;;;;;;4899645;29;20903;-74
2024/03/13 09:34:40;;;;;;;8.27;5.60;;;;;;;;;;4899684;29;20533;-74
2024/03/13 09:37:07;;;;;;;9.73;6.20;;;;;;;;;;4899920;29;20757;-75
2024/03/13 09:39:33;;;;;;;9.43;6.30;;;;;;;;;;4899697;29;20467;-75
2024/03/13 09:42:00;;;;;;;8.17;5.20;;;;;;;;;;4899869;29;20419;-74
2024/03/13 09:44:27;;;;;;;9.20;5.80;;;;;;;;;;4899843;29;20486;-74
2024/03/13 09:46:54;;;;;;;4.63;3.93;;;;;;;;;;4899022;29;20987;-74
2024/03/13 09:49:22;;;;;;;8.33;5.20;;;;;;;;;;4898164;29;20471;-75
2024/03/13 09:51:49;;;;;;;10.13;5.30;;;;;;;;;;4898131;29;20487;-75
2024/03/13 09:54:18;;;;;;;7.53;4.77;;;;;;;;;;4899330;29;20431;-75
2024/03/13 09:56:45;;;;;;;10.40;5.60;;;;;;;;;;4899133;29;20951;-75
2024/03/13 09:59:11;;;;;;;9.10;5.63;;;;;;;;;;4899221;29;20426;-75
2024/03/13 10:01:40;;;;;;;10.10;5.67;;;;;;;;;;4899562;29;20427;-74
2024/03/13 10:04:15;;;;;;;8.77;5.07;;;;;;;;;;4899196;29;20806;-75
2024/03/13 10:06:43;;;;;;;10.83;5.73;;;;;;;;;;4898792;29;20561;-74
2024/03/13 10:09:13;;;;;;;7.37;5.27;;;;;;;;;;4898870;29;20412;-75
2024/03/13 10:11:49;;;;;;;8.60;5.23;;;;;;;;;;4899120;29;20422;-75
2024/03/13 10:14:16;;;;;;;10.70;5.40;;;;;;;;;;4898893;29;20489;-75
2024/03/13 10:16:43;;;;;;;10.40;5.23;;;;;;;;;;4898756;29;20408;-74
2024/03/13 10:19:16;;;;;;;6.80;5.27;;;;;;;;;;4899105;29;20956;-74
2024/03/13 10:21:44;;;;;;;11.10;6.30;;;;;;;;;;4899453;29;20451;-74
2024/03/13 10:24:10;;;;;;;10.87;6.50;;;;;;;;;;4900118;29;20824;-74
2024/03/13 10:26:40;;;;;;;13.60;5.70;;;;;;;;;;4899105;29;20414;-75
2024/03/13 10:29:08;;;;;;;12.67;6.13;;;;;;;;;;4899476;29;20422;-75
2024/03/13 10:31:35;;;;;;;8.33;5.57;;;;;;;;;;4898894;29;20495;-75
2024/03/13 10:34:02;;;;;;;8.13;5.80;;;;;;;;;;4898748;29;20831;-74
2024/03/13 10:36:28;;;;;;;9.73;5.67;;;;;;;;;;4898351;29;20426;-74
2024/03/13 10:38:56;;;;;;;10.53;5.17;;;;;;;;;;4898900;29;20416;-75
2024/03/13 10:41:22;;;;;;;8.10;4.97;;;;;;;;;;4898823;29;20470;-75
2024/03/13 10:43:48;;;;;;;15.30;4.57;;;;;;;;;;4897257;29;20919;-75
2024/03/13 10:46:15;;;;;;;4.87;4.20;;;;;;;;;;4898328;29;20994;-74
2024/03/13 10:48:42;;;;;;;10.67;4.10;;;;;;;;;;4898224;29;20510;-74
2024/03/13 10:51:12;;;;;;;6.77;4.57;;;;;;;;;;4898570;29;20438;-74
2024/03/13 10:53:39;;;;;;;7.13;4.27;;;;;;;;;;4899028;29;20420;-76
2024/03/13 10:56:13;;;;;;;9.77;5.27;;;;;;;;;;4898716;29;20803;-75
2024/03/13 10:58:39;;;;;;;4.97;3.50;;;;;;;;;;4898486;29;20419;-75
2024/03/13 11:01:05;;;;;;;4.73;3.67;;;;;;;;;;4898383;29;20791;-75
2024/03/13 11:03:31;;;;;;;4.67;3.30;;;;;;;;;;4898450;29;20499;-75
2024/03/13 11:06:00;;;;;;;5.87;3.77;;;;;;;;;;4897942;29;20908;-75
2024/03/13 11:08:27;;;;;;;5.53;3.10;;;;;;;;;;4898020;29;20796;-75
2024/03/13 11:10:55;;;;;;;8.73;4.10;;;;;;;;;;4897940;29;20435;-75
2024/03/13 11:13:24;;;;;;;7.37;4.10;;;;;;;;;;4897838;29;20407;-75
2024/03/13 11:15:51;;;;;;;5.80;3.40;;;;;;;;;;4897493;29;20530;-75
2024/03/13 11:18:18;;;;;;;7.97;3.90;;;;;;;;;;4896498;29;20412;-75
2024/03/13 11:20:56;;;;;;;6.30;3.27;;;;;;;;;;4897950;29;20787;-75
2024/03/13 11:23:26;;;;;;;4.60;3.10;;;;;;;;;;4897867;29;20495;-75
2024/03/13 11:25:53;;;;;;;10.03;4.80;;;;;;;;;;4897190;29;21009;-74
2024/03/13 11:28:27;;;;;;;6.53;4.90;;;;;;;;;;4897532;29;20434;-75
2024/03/13 11:30:53;;;;;;;6.90;4.30;;;;;;;;;;4897546;29;20414;-75
2024/03/13 11:33:20;;;;;;;5.73;3.70;;;;;;;;;;4897536;29;20411;-75
2024/03/13 11:35:46;;;;;;;6.80;3.80;;;;;;;;;;4897227;29;20447;-75
2024/03/13 11:38:12;;;;;;;6.67;3.80;;;;;;;;;;4897273;29;20412;-75
2024/03/13 11:40:38;;;;;;;12.90;5.30;;;;;;;;;;4897505;29;20792;-75
2024/03/13 11:43:04;;;;;;;6.87;4.90;;;;;;;;;;4897922;29;20681;-75
2024/03/13 11:45:30;;;;;;;5.87;3.50;;;;;;;;;;4895465;29;20475;-76
2024/03/13 11:48:01;;;;;;;6.17;3.70;;;;;;;;;;4896711;29;20415;-75
2024/03/13 11:50:27;;;;;;;11.77;4.20;;;;;;;;;;4897494;29;20900;-75
2024/03/13 11:52:59;;;;;;;4.90;3.60;;;;;;;;;;4897211;29;20473;-75
2024/03/13 11:55:25;;;;;;;7.73;4.17;;;;;;;;;;4896812;29;20446;-75
2024/03/13 11:58:00;;;;;;;5.80;3.70;;;;;;;;;;4897003;29;20419;-75
2024/03/13 12:00:28;;;;;;;5.20;4.30;;;;;;;;;;4896393;29;20495;-74
2024/03/13 12:02:59;;;;;;;6.10;3.63;;;;;;;;;;4897409;29;20424;-74
2024/03/13 12:05:32;;;;;;;10.40;4.63;;;;;;;;;;4896834;29;20971;-74
2024/03/13 12:08:02;;;;;;;7.83;4.70;;;;;;;;;;4895991;29;20459;-74
2024/03/13 12:10:32;;;;;;;7.43;4.23;;;;;;;;;;4897197;29;20411;-74
2024/03/13 12:12:58;;;;;;;5.73;4.43;;;;;;;;;;4897061;29;20421;-74
2024/03/13 12:15:24;;;;;;;9.43;4.10;;;;;;;;;;4897092;29;20450;-75
2024/03/13 12:17:57;;;;;;;10.17;5.47;;;;;;;;;;4897257;29;20451;-75
2024/03/13 12:20:25;;;;;;;6.57;4.30;;;;;;;;;;4897589;29;20419;-75
2024/03/13 12:22:51;;;;;;;13.20;4.60;;;;;;;;;;4897279;29;20480;-75
2024/03/13 12:25:21;;;;;;;5.43;4.30;;;;;;;;;;4895503;29;20935;-75
2024/03/13 12:27:49;;;;;;;6.43;4.10;;;;;;;;;;4897062;29;20903;-75
2024/03/13 12:30:18;;;;;;;11.27;3.73;;;;;;;;;;4896993;29;20407;-75
2024/03/13 12:32:45;;;;;;;4.33;3.43;;;;;;;;;;4897553;29;20463;-75
2024/03/13 12:35:12;;;;;;;7.53;4.17;;;;;;;;;;4897744;29;20853;-75
2024/03/13 12:37:38;;;;;;;5.40;3.80;;;;;;;;;;4896921;29;20775;-75
2024/03/13 12:40:12;;;;;;;8.43;3.57;;;;;;;;;;4897227;29;20418;-75
2024/03/13 12:42:41;;;;;;;5.40;3.80;;;;;;;;;;4897035;29;20478;-75
2024/03/13 12:45:10;;;;;;;6.07;3.83;;;;;;;;;;4896452;29;21006;-75
2024/03/13 12:47:38;;;;;;;5.43;3.40;;;;;;;;;;4896727;29;20516;-75
2024/03/13 12:50:06;;;;;;;5.83;3.47;;;;;;;;;;4896860;29;20408;-75
2024/03/13 12:52:32;;;;;;;6.97;4.50;;;;;;;;;;4896832;29;20419;-76
2024/03/13 12:55:00;;;;;;;4.97;4.37;;;;;;;;;;4896965;29;20472;-75
2024/03/13 12:57:29;;;;;;;6.00;4.20;;;;;;;;;;4897008;29;20563;-75
2024/03/13 12:59:56;;;;;;;6.40;5.23;;;;;;;;;;4900764;29;20822;-75
2024/03/13 13:02:23;;;;;;;4.43;3.70;;;;;;;;;;4900572;29;20415;-75
2024/03/13 13:04:49;;;;;;;5.20;3.83;;;;;;;;;;4900740;29;20983;-75
2024/03/13 13:07:15;;;;;;;7.43;3.50;;;;;;;;;;4900520;29;20826;-75
2024/03/13 13:09:41;;;;;;;4.27;3.70;;;;;;;;;;4900667;29;20423;-75
2024/03/13 13:12:12;;;;;;;3.93;3.23;;;;;;;;;;4900695;29;20419;-73
2024/03/13 13:14:40;;;;;;;4.87;3.50;;;;;;;;;;4900410;29;20463;-73
2024/03/13 13:17:06;;;;;;;3.87;3.07;;;;;;;;;;4900341;29;20426;-74
2024/03/13 13:19:32;;;;;;;4.13;3.33;;;;;;;;;;4901119;29;20903;-74
2024/03/13 13:21:58;;;;;;;4.70;2.50;;;;;;;;;;4900170;29;20419;-74
2024/03/13 13:24:24;;;;;;;2.47;2.20;;;;;;;;;;4900550;29;20874;-73
2024/03/13 13:26:50;;;;;;;2.70;2.50;;;;;;;;;;4899636;29;20427;-74
2024/03/13 13:29:16;;;;;;;2.63;2.30;;;;;;;;;;4900203;29;20411;-74
2024/03/13 13:31:45;;;;;;;3.20;2.63;;;;;;;;;;4899987;29;20966;-74
2024/03/13 13:34:12;;;;;;;1.87;1.83;;;;;;;;;;4899859;29;20420;-74
2024/03/13 13:36:37;;;;;;;4.20;1.47;;;;;;;;;;4899439;29;20453;-75
2024/03/13 13:39:07;;;;;;;1.70;1.60;;;;;;;;;;4900196;29;20412;-75
2024/03/13 13:41:35;;;;;;;1.80;1.50;;;;;;;;;;4900178;29;20408;-75
2024/03/13 13:44:01;;;;;;;1.57;1.47;;;;;;;;;;4900980;29;20465;-75
2024/03/13 13:46:34;;;;;;;1.40;1.30;;;;;;;;;;4901823;29;20578;-75
2024/03/13 13:49:01;;;;;;;1.53;1.37;;;;;;;;;;4902535;29;20407;-75
2024/03/13 13:51:26;;;;;;;1.80;1.47;;;;;;;;;;4900390;29;20938;-74
2024/03/13 13:53:52;;;;;;;3.20;1.30;;;;;;;;;;4900208;29;20451;-75
2024/03/13 13:56:19;;;;;;;2.10;1.43;;;;;;;;;;4900439;29;20454;-75
2024/03/13 13:58:50;;;;;;;1.20;1.10;;;;;;;;;;4899428;29;20901;-75
2024/03/13 14:01:16;;;;;;;3.10;1.70;;;;;;;;;;4899926;29;20447;-75
2024/03/13 14:03:43;;;;;;;1.53;1.43;;;;;;;;;;4900442;29;20919;-75
2024/03/13 14:06:10;;;;;;;1.77;1.67;;;;;;;;;;4899175;29;21022;-75
2024/03/13 14:08:36;;;;;;;1.80;1.63;;;;;;;;;;4899049;29;20500;-75
2024/03/13 14:11:02;;;;;;;6.10;2.47;;;;;;;;;;4898364;29;20415;-74
2024/03/13 14:13:29;;;;;;;2.80;2.20;;;;;;;;;;4899194;29;20419;-75
2024/03/13 14:15:55;;;;;;;2.97;2.37;;;;;;;;;;4899492;29;20678;-75
2024/03/13 14:18:21;;;;;;;4.50;2.60;;;;;;;;;;4900000;29;20419;-75
2024/03/13 14:20:49;;;;;;;2.93;2.30;;;;;;;;;;4899907;29;20722;-76
2024/03/13 14:23:16;;;;;;;2.83;2.30;;;;;;;;;;4899291;29;20470;-75
2024/03/13 14:25:43;;;;;;;3.00;2.67;;;;;;;;;;4898941;29;20826;-75
2024/03/13 14:28:10;;;;;;;5.73;2.83;;;;;;;;;;4899223;29;20927;-75
2024/03/13 14:30:37;;;;;;;5.03;3.50;;;;;;;;;;4899294;29;20547;-75
2024/03/13 14:33:04;;;;;;;4.57;3.03;;;;;;;;;;4898976;29;20416;-75
2024/03/13 14:35:31;;;;;;;3.83;2.67;;;;;;;;;;4899250;29;20439;-75
2024/03/13 14:37:57;;;;;;;3.07;2.13;;;;;;;;;;4898901;29;20411;-75
2024/03/13 14:40:24;;;;;;;4.10;2.30;;;;;;;;;;4899017;29;20442;-75
2024/03/13 14:42:51;;;;;;;3.40;1.90;;;;;;;;;;4898836;29;20921;-74
2024/03/13 14:45:18;;;;;;;3.37;1.97;;;;;;;;;;4898314;29;20983;-75
2024/03/13 14:47:45;;;;;;;2.33;2.10;;;;;;;;;;4898662;29;20420;-75
2024/03/13 14:50:12;;;;;;;8.17;2.30;;;;;;;;;;4899303;29;20796;-75
2024/03/13 14:52:38;;;;;;;6.00;2.13;;;;;;;;;;4899074;29;20474;-74
2024/03/13 14:55:04;;;;;;;2.73;2.20;;;;;;;;;;4898306;29;20524;-75
2024/03/13 14:57:30;;;;;;;5.77;2.27;;;;;;;;;;4898750;29;20443;-75
2024/03/13 14:59:56;;;;;;;2.40;2.20;;;;;;;;;;4897059;29;20794;-74
2024/03/13 15:02:22;;;;;;;3.50;2.30;;;;;;;;;;4898675;29;20448;-75
2024/03/13 15:04:48;;;;;;;4.90;2.10;;;;;;;;;;4898340;29;20478;-75
2024/03/13 15:07:14;;;;;;;5.80;2.67;;;;;;;;;;4898158;29;20411;-75
2024/03/13 15:09:40;;;;;;;8.47;2.00;;;;;;;;;;4898261;29;20415;-75
2024/03/13 15:12:10;;;;;;;2.70;1.93;;;;;;;;;;4898586;29;20419;-74
2024/03/13 15:14:39;;;;;;;2.63;1.93;;;;;;;;;;4898571;29;20526;-74
2024/03/13 15:17:08;;;;;;;2.70;2.00;;;;;;;;;;4897559;29;20422;-75
2024/03/13 15:19:36;;;;;;;2.83;2.03;;;;;;;;;;4898099;29;20430;-74
2024/03/13 15:22:04;;;;;;;1.83;1.77;;;;;;;;;;4896713;29;20426;-74
2024/03/13 15:24:30;;;;;;;2.57;1.73;;;;;;;;;;4897705;29;20466;-75
2024/03/13 15:26:56;;;;;;;2.20;1.67;;;;;;;;;;4899854;29;20420;-75
2024/03/13 15:29:22;;;;;;;2.63;1.83;;;;;;;;;;4900982;29;20424;-75
2024/03/13 15:31:51;;;;;;;2.53;1.97;;;;;;;;;;4897832;29;20840;-75
2024/03/13 15:34:17;;;;;;;2.33;2.00;;;;;;;;;;4897746;29;20419;-76
2024/03/13 15:36:43;;;;;;;2.17;2.00;;;;;;;;;;4897666;29;20416;-76
2024/03/13 15:39:13;;;;;;;9.03;2.20;;;;;;;;;;4897711;29;20504;-76
2024/03/13 15:41:43;;;;;;;4.73;1.70;;;;;;;;;;4897859;29;20404;-75
2024/03/13 15:44:09;;;;;;;2.53;1.80;;;;;;;;;;4897572;29;20420;-75
2024/03/13 15:46:37;;;;;;;2.37;2.07;;;;;;;;;;4897491;29;20436;-76
2024/03/13 15:49:04;;;;;;;2.30;2.03;;;;;;;;;;4897519;29;20557;-75
2024/03/13 15:51:30;;;;;;;3.20;1.90;;;;;;;;;;4897584;29;20462;-76
2024/03/13 15:53:55;;;;;;;3.90;2.13;;;;;;;;;;4897677;29;20455;-75
2024/03/13 15:56:22;;;;;;;1.73;1.70;;;;;;;;;;4897521;29;20828;-76
2024/03/13 15:58:48;;;;;;;3.30;1.90;;;;;;;;;;4897358;29;20426;-75
2024/03/13 16:01:15;;;;;;;3.70;1.83;;;;;;;;;;4899879;29;20419;-75
2024/03/13 16:03:44;;;;;;;2.70;2.13;;;;;;;;;;4908195;29;20416;-75
2024/03/13 16:06:10;;;;;;;8.33;2.20;;;;;;;;;;4904920;29;20463;-75
2024/03/13 16:08:44;;;;;;;7.40;2.87;;;;;;;;;;4904534;29;20431;-75
2024/03/13 16:11:10;;;;;;;3.03;2.23;;;;;;;;;;4899518;29;20472;-75
2024/03/13 16:13:36;;;;;;;2.50;2.00;;;;;;;;;;4901301;29;20411;-74
2024/03/13 16:16:02;;;;;;;6.63;2.87;;;;;;;;;;4911184;29;20435;-75
2024/03/13 16:18:28;;;;;;;3.70;2.83;;;;;;;;;;4916040;29;20423;-74
2024/03/13 16:20:54;;;;;;;4.77;2.87;;;;;;;;;;4904587;29;20420;-75
2024/03/13 16:23:20;;;;;;;5.90;2.13;;;;;;;;;;4896972;29;20946;-75
2024/03/13 16:25:46;;;;;;;6.50;2.37;;;;;;;;;;4896744;29;20474;-75
2024/03/13 16:28:13;;;;;;;2.90;1.83;;;;;;;;;;4897139;29;20787;-75
2024/03/13 16:30:42;;;;;;;2.07;1.80;;;;;;;;;;4897188;29;20417;-75
2024/03/13 16:33:08;;;;;;;5.87;1.90;;;;;;;;;;4898227;29;20857;-76
2024/03/13 16:35:34;;;;;;;3.20;2.50;;;;;;;;;;4900527;29;20472;-75
2024/03/13 16:38:01;;;;;;;9.00;3.00;;;;;;;;;;4900807;29;20426;-76
2024/03/13 16:40:27;;;;;;;2.90;2.00;;;;;;;;;;4900618;29;20423;-76
2024/03/13 16:42:53;;;;;;;2.90;2.13;;;;;;;;;;4900851;29;20526;-75
2024/03/13 16:45:19;;;;;;;7.93;2.13;;;;;;;;;;4900416;29;20497;-76
2024/03/13 16:47:45;;;;;;;3.63;2.00;;;;;;;;;;4901082;29;20430;-75
2024/03/13 16:50:14;;;;;;;5.40;2.20;;;;;;;;;;4900661;29;20783;-75
2024/03/13 16:52:43;;;;;;;3.00;2.30;;;;;;;;;;4900691;29;20407;-75
2024/03/13 16:55:11;;;;;;;5.73;2.27;;;;;;;;;;4900106;29;20784;-76
2024/03/13 16:57:38;;;;;;;3.17;1.90;;;;;;;;;;4900720;29;20423;-74
2024/03/13 17:00:09;;;;;;;4.33;2.27;;;;;;;;;;4900411;29;20494;-74
2024/03/13 17:02:35;;;;;;;3.97;2.37;;;;;;;;;;4900313;29;20426;-75
2024/03/13 17:05:01;;;;;;;3.40;2.33;;;;;;;;;;4900040;29;20479;-75
2024/03/13 17:07:27;;;;;;;3.47;2.27;;;;;;;;;;4898776;29;20484;-75
2024/03/13 17:09:54;;;;;;;2.03;1.90;;;;;;;;;;4900252;29;20415;-75
2024/03/13 17:12:20;;;;;;;5.30;2.40;;;;;;;;;;4900111;29;20486;-75
2024/03/13 17:14:46;;;;;;;3.20;2.57;;;;;;;;;;4899817;29;20439;-73
2024/03/13 17:17:12;;;;;;;4.27;2.20;;;;;;;;;;4900216;29;20487;-75
2024/03/13 17:19:38;;;;;;;5.03;2.33;;;;;;;;;;4900044;29;20431;-74
2024/03/13 17:22:05;;;;;;;3.90;2.60;;;;;;;;;;4900044;29;20518;-74
2024/03/13 17:24:31;;;;;;;3.67;2.40;;;;;;;;;;4913663;29;20450;-75
2024/03/13 17:26:57;;;;;;;4.80;2.30;;;;;;;;;;4918735;29;20426;-75
2024/03/13 17:29:24;;;;;;;3.00;2.33;;;;;;;;;;4919152;29;20437;-75
2024/03/13 17:31:50;;;;;;;7.43;2.30;;;;;;;;;;4919127;29;20498;-74
2024/03/13 17:34:18;;;;;;;4.47;2.30;;;;;;;;;;4918767;29;20910;-75
2024/03/13 17:36:44;;;;;;;6.97;2.30;;;;;;;;;;4918356;29;20427;-74
2024/03/13 17:39:11;;;;;;;3.87;2.70;;;;;;;;;;4918369;29;20418;-76
2024/03/13 17:41:37;;;;;;;5.83;2.20;;;;;;;;;;4918343;29;20457;-75
2024/03/13 17:44:04;;;;;;;2.93;2.10;;;;;;;;;;4919192;29;20492;-75
2024/03/13 17:46:30;;;;;;;5.63;2.70;;;;;;;;;;4917742;29;20958;-75
2024/03/13 17:48:56;;;;;;;7.60;2.90;;;;;;;;;;4918129;29;20422;-75
2024/03/13 17:51:22;;;;;;;3.40;2.50;;;;;;;;;;4917990;29;20419;-75
2024/03/13 17:53:50;;;;;;;5.53;2.40;;;;;;;;;;4918440;29;20513;-75
2024/03/13 17:56:16;;;;;;;3.57;2.30;;;;;;;;;;4917816;29;20447;-75
2024/03/13 17:58:42;;;;;;;3.97;2.27;;;;;;;;;;4918163;29;20505;-74
2024/03/13 18:01:09;;;;;;;5.80;2.80;;;;;;;;;;4918065;29;20411;-75
2024/03/13 18:03:35;;;;;;;6.07;2.97;;;;;;;;;;4918050;29;20502;-74
2024/03/13 18:06:02;;;;;;;4.70;3.17;;;;;;;;;;4917866;29;20553;-74
2024/03/13 18:08:28;;;;;;;6.80;2.70;;;;;;;;;;4918096;29;20414;-75
2024/03/13 18:10:54;;;;;;;6.40;3.03;;;;;;;;;;4918070;29;20473;-75
2024/03/13 18:13:20;;;;;;;3.57;3.07;;;;;;;;;;4918301;29;20413;-75
2024/03/13 18:15:47;;;;;;;8.60;3.60;;;;;;;;;;4918022;29;20810;-75
2024/03/13 18:18:13;;;;;;;8.27;4.73;;;;;;;;;;4918133;29;20418;-74
2024/03/13 18:20:40;;;;;;;14.23;7.63;;;;;;;;;;4900716;29;20414;-74
2024/03/13 18:23:06;;;;;;;7.77;5.03;;;;;;;;;;4917881;29;20422;-74
2024/03/13 18:25:32;;;;;;;11.43;4.43;;;;;;;;;;4918496;29;20573;-75
2024/03/13 18:27:58;;;;;;;10.73;4.60;;;;;;;;;;4917668;29;20415;-74
2024/03/13 18:30:24;;;;;;;17.17;6.17;;;;;;;;;;4917389;29;20417;-76
2024/03/13 18:32:50;;;;;;;13.90;6.17;;;;;;;;;;4916498;29;20410;-75
2024/03/13 18:35:17;;;;;;;12.13;5.97;;;;;;;;;;4917199;29;20814;-74
2024/03/13 18:37:43;;;;;;;11.47;6.07;;;;;;;;;;4917396;29;20501;-75
2024/03/13 18:40:15;;;;;;;13.30;5.50;;;;;;;;;;4917819;29;20449;-75
2024/03/13 18:42:42;;;;;;;8.13;4.97;;;;;;;;;;4917483;29;20791;-74
2024/03/13 18:45:11;;;;;;;11.13;6.00;;;;;;;;;;4917128;29;20994;-75
2024/03/13 18:47:38;;;;;;;9.37;5.27;;;;;;;;;;4917196;29;20423;-75
2024/03/13 18:50:04;;;;;;;9.60;4.90;;;;;;;;;;4917900;29;20421;-74
2024/03/13 18:52:30;;;;;;;12.33;6.60;;;;;;;;;;4918268;29;20407;-75
2024/03/13 18:54:56;;;;;;;14.87;5.87;;;;;;;;;;4917033;29;20594;-75
2024/03/13 18:57:27;;;;;;;12.80;6.67;;;;;;;;;;4916998;29;20425;-75
2024/03/13 18:59:53;;;;;;;10.90;7.30;;;;;;;;;;4917166;29;20422;-75
2024/03/13 19:02:21;;;;;;;8.80;5.70;;;;;;;;;;4917019;29;20422;-75
2024/03/13 19:04:48;;;;;;;14.87;5.73;;;;;;;;;;4916561;29;20474;-75
2024/03/13 19:07:14;;;;;;;11.53;5.20;;;;;;;;;;4916742;29;20497;-75
2024/03/13 19:09:40;;;;;;;10.00;5.90;;;;;;;;;;4919981;29;20442;-75
2024/03/13 19:12:06;;;;;;;15.60;7.07;;;;;;;;;;4922588;29;20418;-74
2024/03/13 19:14:32;;;;;;;12.30;6.10;;;;;;;;;;4918707;29;20437;-74
2024/03/13 19:16:58;;;;;;;14.77;6.83;;;;;;;;;;4916535;29;20418;-73
2024/03/13 19:19:24;;;;;;;9.90;5.67;;;;;;;;;;4917759;29;20418;-76
2024/03/13 19:21:51;;;;;;;14.73;7.80;;;;;;;;;;4917204;29;20501;-74
2024/03/13 19:24:17;;;;;;;19.77;7.67;;;;;;;;;;4921549;29;20414;-77
2024/03/13 19:26:43;;;;;;;9.93;6.07;;;;;;;;;;4919925;29;20943;-74
2024/03/13 19:29:12;;;;;;;13.97;6.53;;;;;;;;;;4916734;29;20781;-75
2024/03/13 19:31:38;;;;;;;14.53;6.90;;;;;;;;;;4916757;29;20486;-74
2024/03/13 19:34:04;;;;;;;10.77;6.00;;;;;;;;;;4916605;29;20551;-75
2024/03/13 19:36:30;;;;;;;18.47;7.73;;;;;;;;;;4916784;29;20395;-75
2024/03/13 19:38:55;;;;;;;22.20;8.30;;;;;;;;;;4922635;29;20410;-76
2024/03/13 19:41:23;;;;;;;14.97;6.47;;;;;;;;;;4917690;29;20422;-75
2024/03/13 19:43:49;;;;;;;21.10;7.40;;;;;;;;;;4917808;29;20418;-75
2024/03/13 19:46:15;;;;;;;15.13;6.80;;;;;;;;;;4916634;29;20489;-75
2024/03/13 19:48:41;;;;;;;25.37;8.17;;;;;;;;;;4917485;29;20417;-75
2024/03/13 19:51:07;;;;;;;13.20;7.60;;;;;;;;;;4917112;29;20411;-75
2024/03/13 19:53:36;;;;;;;14.50;7.50;;;;;;;;;;4916691;29;20485;-75
2024/03/13 19:56:04;;;;;;;13.67;7.37;;;;;;;;;;4916279;29;20477;-75
2024/03/13 19:58:31;;;;;;;14.60;7.57;;;;;;;;;;4916793;29;20453;-76
2024/03/13 20:00:57;;;;;;;13.97;7.20;;;;;;;;;;4898981;29;20471;-74
2024/03/13 20:03:24;;;;;;;22.40;7.93;;;;;;;;;;4916391;29;20426;-75
2024/03/13 20:05:50;;;;;;;13.90;7.07;;;;;;;;;;4915795;29;20974;-74
2024/03/13 20:08:16;;;;;;;14.60;8.07;;;;;;;;;;4915832;29;20407;-75
2024/03/13 20:10:42;;;;;;;14.13;7.57;;;;;;;;;;4916073;29;20556;-75
2024/03/13 20:13:09;;;;;;;28.07;10.20;;;;;;;;;;4916441;29;20933;-75
2024/03/13 20:15:35;;;;;;;11.70;7.60;;;;;;;;;;4915747;29;20434;-74
2024/03/13 20:18:02;;;;;;;5.30;4.47;;;;;;;;;;4915913;29;20913;-75
2024/03/13 20:20:28;;;;;;;15.73;6.20;;;;;;;;;;4915933;29;20418;-75
2024/03/13 20:22:54;;;;;;;14.90;7.33;;;;;;;;;;4915858;29;20407;-75